To NAV CANADA Home Page Login to a new session Search on AWWS site Disclaimer Vers la page française équivalente Tips FAQ What's new on the site To the Forecasts and Observations / NOTAM section To "File a Flight Plan" website Publications and other links Update of the User's profile FIC Telephone Numbers My Weather Data Folder Route Weather Data Regional Weather Data Local Weather Data To the Forecasts and Observations / NOTAM section
Request Generated 11/13/2018 at 18:34:00 UTC . Weather information available at that time is displayed.

METAR/TAF

FORT RESOLUTION/NT    

METAR CYFR 131800Z 11013G19KT 2 1/2SM -SN BLSN OVC052 M09/M11 A3002 RMK SC8 /S01/ SLP182=
SPECI CYFR 131737Z 11015G21KT 2SM -SN BLSN OVC054 M09/M11 A3002 RMK SC8 SLP184=
METAR CYFR 131700Z 11012G20KT 3SM -SN BLSN OVC054 M09/M12 A3004 RMK SC8 SLP191=
METAR CYFR 131600Z 11013G20KT 4SM -SN BLSN OVC052 M10/M12 A3006 RMK SC8 SLP196=

CYFR - No TAF is issued for this station

Your time UTC time
Weather data provided by Environment Canada and NAV CANADA